createdAt,value
2018-11-14T00:00:01.510Z,5.20
2018-11-14T00:02:29.754Z,5.00
2018-11-14T00:04:58.061Z,4.70
2018-11-14T00:07:26.314Z,4.50
2018-11-14T00:09:54.596Z,4.40
2018-11-14T00:12:22.894Z,4.10
2018-11-14T00:14:51.168Z,4.10
2018-11-14T00:17:19.447Z,4.00
2018-11-14T00:19:47.698Z,4.10
2018-11-14T00:22:15.962Z,4.10
2018-11-14T00:24:44.322Z,4.00
2018-11-14T00:27:12.557Z,4.10
2018-11-14T00:29:41.273Z,4.50
2018-11-14T00:32:09.061Z,4.60
2018-11-14T00:34:37.302Z,4.40
2018-11-14T00:37:05.740Z,4.50
2018-11-14T00:39:33.998Z,4.70
2018-11-14T00:42:02.313Z,4.70
2018-11-14T00:44:30.557Z,4.70
2018-11-14T00:46:58.861Z,4.70
2018-11-14T00:49:27.107Z,4.80
2018-11-14T00:51:55.586Z,4.60
2018-11-14T00:54:23.769Z,4.70
2018-11-14T00:56:52.073Z,4.70
2018-11-14T00:59:20.315Z,4.50
2018-11-14T01:01:48.628Z,4.10
2018-11-14T01:04:16.873Z,4.30
2018-11-14T01:06:45.154Z,4.40
2018-11-14T01:09:13.731Z,4.40
2018-11-14T01:11:41.930Z,4.50
2018-11-14T01:14:10.771Z,4.60
2018-11-14T01:16:38.994Z,4.60
2018-11-14T01:19:08.208Z,4.60
2018-11-14T01:21:36.496Z,4.40
2018-11-14T01:24:04.758Z,3.90
2018-11-14T01:26:33.025Z,3.90
2018-11-14T01:29:01.352Z,4.00
2018-11-14T01:31:29.678Z,3.90
2018-11-14T01:33:57.967Z,3.90
2018-11-14T01:36:26.212Z,4.60
2018-11-14T01:38:54.510Z,5.30
2018-11-14T01:41:22.865Z,4.60
2018-11-14T01:43:51.130Z,3.80
2018-11-14T01:46:19.419Z,3.80
2018-11-14T01:48:47.724Z,3.50
2018-11-14T01:51:16.169Z,3.60
2018-11-14T01:53:44.478Z,3.30
2018-11-14T01:56:12.729Z,3.00
2018-11-14T01:58:40.989Z,3.00
2018-11-14T02:01:09.280Z,3.40
2018-11-14T02:03:37.538Z,3.50
2018-11-14T02:06:06.273Z,3.90
2018-11-14T02:08:34.553Z,4.20
2018-11-14T02:11:02.793Z,3.70
2018-11-14T02:13:31.143Z,4.50
2018-11-14T02:15:59.468Z,4.70
2018-11-14T02:18:27.695Z,5.00
2018-11-14T02:20:55.913Z,5.40
2018-11-14T02:23:24.198Z,6.30
2018-11-14T02:25:52.466Z,5.60
2018-11-14T02:28:20.767Z,5.80
2018-11-14T02:30:48.986Z,6.70
2018-11-14T02:33:17.280Z,6.90
2018-11-14T02:35:45.556Z,6.50
2018-11-14T02:38:13.796Z,5.50
2018-11-14T02:40:42.029Z,5.10
2018-11-14T02:43:10.265Z,6.10
2018-11-14T02:45:38.482Z,6.50
2018-11-14T02:48:06.728Z,4.90
2018-11-14T02:50:34.918Z,4.30
2018-11-14T02:53:03.194Z,4.30
2018-11-14T02:55:31.441Z,4.30
2018-11-14T02:57:59.645Z,3.90
2018-11-14T03:00:27.871Z,3.70
2018-11-14T03:02:56.078Z,3.70
2018-11-14T03:05:24.345Z,3.80
2018-11-14T03:07:52.597Z,3.60
2018-11-14T03:10:21.718Z,4.60
2018-11-14T03:12:50.016Z,5.90
2018-11-14T03:15:19.746Z,6.50
2018-11-14T03:17:47.986Z,6.70
2018-11-14T03:20:17.688Z,7.10
2018-11-14T03:22:45.999Z,7.00
2018-11-14T03:25:14.658Z,7.20
2018-11-14T03:27:42.971Z,7.30
2018-11-14T03:30:13.148Z,6.90
2018-11-14T03:32:42.262Z,7.20
2018-11-14T03:35:11.240Z,7.00
2018-11-14T03:37:39.528Z,6.50
2018-11-14T03:40:09.230Z,6.50
2018-11-14T03:42:37.604Z,6.10
2018-11-14T03:45:06.633Z,5.60
2018-11-14T03:47:34.873Z,5.00
2018-11-14T03:50:03.139Z,4.50
2018-11-14T03:52:31.333Z,4.30
2018-11-14T03:54:59.611Z,4.70
2018-11-14T03:57:27.888Z,6.10
2018-11-14T03:59:56.157Z,5.90
2018-11-14T04:02:24.349Z,6.50
2018-11-14T04:04:52.611Z,6.80
2018-11-14T04:07:20.876Z,6.80
2018-11-14T04:09:49.052Z,6.90
2018-11-14T04:12:17.314Z,6.90
2018-11-14T04:14:45.522Z,7.10
2018-11-14T04:17:13.785Z,7.00
2018-11-14T04:19:41.997Z,6.60
2018-11-14T04:22:10.233Z,6.40
2018-11-14T04:24:38.442Z,6.90
2018-11-14T04:27:06.707Z,7.00
2018-11-14T04:29:34.889Z,6.80
2018-11-14T04:32:03.106Z,4.50
2018-11-14T04:34:31.280Z,3.20
2018-11-14T04:36:59.490Z,2.80
2018-11-14T04:39:27.784Z,3.00
2018-11-14T04:41:56.001Z,3.80
2018-11-14T04:44:24.210Z,5.20
2018-11-14T04:46:52.405Z,5.60
2018-11-14T04:49:20.597Z,5.80
2018-11-14T04:51:48.801Z,5.40
2018-11-14T04:54:17.029Z,4.80
2018-11-14T04:56:45.254Z,4.50
2018-11-14T04:59:13.449Z,5.60
2018-11-14T05:01:41.649Z,5.30
2018-11-14T05:04:09.891Z,5.70
2018-11-14T05:06:38.117Z,5.60
2018-11-14T05:09:08.327Z,5.90
2018-11-14T05:11:36.570Z,4.40
2018-11-14T05:14:05.387Z,4.90
2018-11-14T05:16:33.611Z,5.20
2018-11-14T05:19:01.828Z,5.50
2018-11-14T05:21:30.039Z,6.10
2018-11-14T05:23:58.256Z,4.30
2018-11-14T05:26:26.449Z,4.80
2018-11-14T05:28:54.645Z,4.10
2018-11-14T05:31:22.857Z,4.00
2018-11-14T05:33:51.078Z,4.00
2018-11-14T05:36:19.358Z,3.50
2018-11-14T05:38:47.537Z,4.30
2018-11-14T05:41:15.762Z,4.90
2018-11-14T05:43:43.964Z,5.60
2018-11-14T05:46:12.210Z,5.00
2018-11-14T05:48:40.498Z,3.40
2018-11-14T05:51:08.765Z,3.40
2018-11-14T05:53:36.997Z,4.20
2018-11-14T05:56:05.269Z,5.10
2018-11-14T05:58:33.487Z,4.30
2018-11-14T06:01:01.890Z,3.00
2018-11-14T06:03:30.128Z,2.50
2018-11-14T06:05:58.473Z,2.40
2018-11-14T06:08:26.659Z,3.40
2018-11-14T06:10:54.942Z,3.50
2018-11-14T06:13:23.233Z,5.00
2018-11-14T06:15:51.587Z,5.60
2018-11-14T06:18:19.857Z,5.30
2018-11-14T06:20:48.090Z,4.70
2018-11-14T06:23:16.273Z,4.70
2018-11-14T06:25:44.491Z,4.30
2018-11-14T06:28:12.721Z,4.60
2018-11-14T06:30:41.961Z,5.30
2018-11-14T06:33:10.954Z,4.00
2018-11-14T06:35:39.190Z,4.10
2018-11-14T06:38:07.466Z,3.30
2018-11-14T06:40:35.657Z,2.80
2018-11-14T06:43:03.924Z,2.30
2018-11-14T06:45:32.927Z,2.10
2018-11-14T06:48:01.819Z,2.30
2018-11-14T06:50:30.087Z,2.40
2018-11-14T06:53:07.065Z,2.50
2018-11-14T06:55:35.342Z,2.60
2018-11-14T06:58:03.547Z,2.80
2018-11-14T07:00:33.558Z,2.30
2018-11-14T07:03:02.833Z,2.00
2018-11-14T07:05:31.148Z,1.80
2018-11-14T07:07:59.285Z,1.80
2018-11-14T07:10:31.939Z,2.10
2018-11-14T07:13:08.168Z,2.20
2018-11-14T07:15:36.943Z,2.20
2018-11-14T07:18:05.567Z,2.30
2018-11-14T07:20:35.105Z,2.60
2018-11-14T07:23:03.382Z,2.70
2018-11-14T07:25:31.647Z,2.20
2018-11-14T07:27:59.955Z,2.00
2018-11-14T07:30:29.262Z,2.20
2018-11-14T07:32:58.946Z,2.60
2018-11-14T07:35:27.197Z,2.70
2018-11-14T07:39:00.082Z,2.90
2018-11-14T07:41:37.850Z,3.00
2018-11-14T07:44:06.540Z,2.70
2018-11-14T07:46:35.353Z,2.90
2018-11-14T07:49:03.698Z,3.30
2018-11-14T07:51:31.964Z,3.30
2018-11-14T07:54:00.413Z,3.30
2018-11-14T07:56:28.766Z,3.30
2018-11-14T07:58:56.989Z,3.50
2018-11-14T08:01:25.249Z,3.80
2018-11-14T08:03:53.521Z,4.10
2018-11-14T08:06:21.802Z,3.90
2018-11-14T08:08:50.045Z,3.70
2018-11-14T08:11:18.274Z,3.60
2018-11-14T08:13:47.774Z,3.80
2018-11-14T08:16:16.029Z,4.00
2018-11-14T08:18:44.321Z,4.60
2018-11-14T08:21:12.484Z,4.90
2018-11-14T08:23:40.828Z,4.90
2018-11-14T08:26:09.076Z,5.50
2018-11-14T08:28:37.342Z,5.50
2018-11-14T08:31:05.813Z,6.80
2018-11-14T08:33:34.101Z,7.00
2018-11-14T08:36:02.356Z,7.60
2018-11-14T08:38:30.625Z,8.50
2018-11-14T08:40:58.924Z,8.70
2018-11-14T08:43:27.201Z,8.70
2018-11-14T08:45:55.480Z,8.40
2018-11-14T08:48:23.755Z,7.50
2018-11-14T08:50:52.032Z,7.90
2018-11-14T08:53:20.297Z,8.70
2018-11-14T08:55:48.679Z,9.00
2018-11-14T08:58:16.960Z,9.30
2018-11-14T09:00:45.209Z,9.20
2018-11-14T09:03:14.377Z,9.10
2018-11-14T09:05:42.608Z,9.40
2018-11-14T09:08:10.858Z,9.70
2018-11-14T09:10:39.163Z,10.00
2018-11-14T09:13:11.696Z,10.20
2018-11-14T09:15:40.014Z,10.70
2018-11-14T09:18:08.446Z,10.70
2018-11-14T09:20:36.630Z,10.60
2018-11-14T09:23:05.766Z,10.70
2018-11-14T09:25:34.141Z,10.80
2018-11-14T09:28:02.634Z,10.60
2018-11-14T09:30:30.897Z,10.40
2018-11-14T09:32:59.213Z,10.60
2018-11-14T09:35:27.924Z,10.50
2018-11-14T09:37:57.308Z,10.40
2018-11-14T09:40:26.633Z,10.40
2018-11-14T09:42:54.917Z,10.70
2018-11-14T09:45:24.552Z,10.90
2018-11-14T09:47:52.821Z,11.30
2018-11-14T09:50:24.219Z,11.60
2018-11-14T09:52:54.678Z,11.60
2018-11-14T09:55:22.978Z,11.70
2018-11-14T09:57:51.254Z,12.20
2018-11-14T10:00:21.214Z,12.50
2018-11-14T10:02:51.574Z,12.40
2018-11-14T10:05:21.104Z,12.30
2018-11-14T10:07:49.383Z,12.50
2018-11-14T10:10:19.397Z,12.90
2018-11-14T10:12:47.674Z,13.30
2018-11-14T10:15:17.323Z,13.70
2018-11-14T10:17:46.056Z,14.00
2018-11-14T10:20:15.925Z,14.00
2018-11-14T10:22:44.381Z,13.60
2018-11-14T10:25:13.241Z,13.60
2018-11-14T10:27:43.166Z,14.00
2018-11-14T10:30:14.840Z,13.70
2018-11-14T10:32:43.833Z,13.70
2018-11-14T10:35:12.242Z,13.70
2018-11-14T10:37:40.818Z,13.90
2018-11-14T10:40:15.218Z,14.40
2018-11-14T10:42:44.206Z,15.00
2018-11-14T10:45:15.097Z,15.80
2018-11-14T10:47:43.475Z,16.00
2018-11-14T10:50:14.696Z,15.10
2018-11-14T10:52:42.903Z,14.10
2018-11-14T10:55:12.446Z,13.70
2018-11-14T10:57:40.663Z,13.80
2018-11-14T11:00:18.661Z,13.60
2018-11-14T11:02:52.178Z,14.00
2018-11-14T11:05:25.702Z,13.90
2018-11-14T11:07:59.291Z,14.00
2018-11-14T11:10:32.877Z,14.50
2018-11-14T11:13:05.382Z,13.80
2018-11-14T11:15:39.399Z,14.30
2018-11-14T11:18:10.389Z,14.20
2018-11-14T11:20:38.697Z,14.20
2018-11-14T11:23:07.078Z,14.60
2018-11-14T11:25:35.339Z,14.80
2018-11-14T11:28:03.808Z,14.50
2018-11-14T11:30:32.248Z,14.20
2018-11-14T11:33:00.366Z,14.60
2018-11-14T11:35:29.709Z,14.30
2018-11-14T11:37:58.001Z,14.30
2018-11-14T11:40:26.250Z,14.20
2018-11-14T11:42:55.259Z,14.40
2018-11-14T11:45:23.575Z,14.90
2018-11-14T11:47:52.113Z,14.60
2018-11-14T11:50:20.453Z,14.40
2018-11-14T11:52:48.748Z,14.90
2018-11-14T11:55:16.982Z,15.00
2018-11-14T11:57:46.353Z,15.10
2018-11-14T12:00:14.791Z,15.30
2018-11-14T12:02:43.873Z,15.50
2018-11-14T12:05:14.251Z,15.40
2018-11-14T12:07:43.026Z,15.50
2018-11-14T12:10:13.197Z,15.70
2018-11-14T12:12:42.340Z,15.80
2018-11-14T12:15:11.670Z,16.30
2018-11-14T12:17:40.952Z,15.90
2018-11-14T12:20:11.524Z,15.40
2018-11-14T12:22:46.670Z,15.50
2018-11-14T12:25:15.668Z,15.60
2018-11-14T12:27:44.453Z,16.10
2018-11-14T12:30:15.140Z,16.20
2018-11-14T12:32:43.334Z,16.20
2018-11-14T12:35:12.981Z,16.50
2018-11-14T12:37:41.462Z,16.40
2018-11-14T12:40:13.750Z,16.20
2018-11-14T12:42:42.099Z,15.60
2018-11-14T12:45:14.610Z,15.20
2018-11-14T12:47:43.426Z,15.30
2018-11-14T12:50:12.686Z,15.40
2018-11-14T12:52:41.297Z,15.00
2018-11-14T12:55:11.662Z,15.40
2018-11-14T12:57:39.878Z,15.40
2018-11-14T13:00:09.867Z,16.30
2018-11-14T13:02:38.118Z,16.00
2018-11-14T13:05:07.181Z,15.00
2018-11-14T13:07:35.438Z,14.30
2018-11-14T13:10:04.427Z,14.00
2018-11-14T13:12:33.709Z,14.90
2018-11-14T13:15:01.972Z,15.60
2018-11-14T13:17:30.474Z,14.20
2018-11-14T13:19:58.871Z,13.80
2018-11-14T13:22:27.208Z,13.30
2018-11-14T13:24:55.492Z,14.50
2018-11-14T13:27:23.811Z,14.30
2018-11-14T13:29:52.065Z,13.70
2018-11-14T13:32:20.567Z,13.30
2018-11-14T13:34:48.832Z,13.90
2018-11-14T13:37:17.205Z,13.90
2018-11-14T13:39:45.477Z,13.80
2018-11-14T13:42:13.750Z,13.30
2018-11-14T13:44:42.026Z,12.60
2018-11-14T13:47:10.485Z,12.30
2018-11-14T13:49:38.898Z,12.70
2018-11-14T13:52:07.045Z,12.30
2018-11-14T13:54:35.368Z,12.30
2018-11-14T13:57:03.739Z,12.40
2018-11-14T13:59:33.076Z,12.30
2018-11-14T14:02:01.434Z,12.30
2018-11-14T14:04:29.852Z,11.90
2018-11-14T14:06:58.183Z,11.60
2018-11-14T14:09:26.618Z,11.60
2018-11-14T14:11:54.947Z,11.50
2018-11-14T14:14:23.246Z,11.50
2018-11-14T14:16:51.677Z,11.70
2018-11-14T14:19:20.073Z,11.50
2018-11-14T14:21:48.430Z,11.70
2018-11-14T14:24:16.744Z,12.30
2018-11-14T14:26:45.115Z,12.00
2018-11-14T14:29:13.530Z,11.00
2018-11-14T14:31:41.981Z,10.90
2018-11-14T14:34:10.336Z,10.80
2018-11-14T14:36:38.674Z,11.10
2018-11-14T14:39:09.131Z,11.10
2018-11-14T14:41:37.508Z,11.30
2018-11-14T14:44:06.076Z,11.60
2018-11-14T14:46:34.438Z,11.80
2018-11-14T14:49:02.874Z,11.10
2018-11-14T14:51:31.262Z,11.30
2018-11-14T14:53:59.625Z,11.80
2018-11-14T14:56:28.079Z,11.60
2018-11-14T14:58:56.394Z,11.90
2018-11-14T15:01:24.775Z,10.60
2018-11-14T15:03:53.128Z,11.00
2018-11-14T15:06:21.498Z,10.70
2018-11-14T15:08:49.933Z,11.00
2018-11-14T15:11:18.450Z,10.30
2018-11-14T15:13:46.930Z,10.80
2018-11-14T15:16:15.410Z,10.40
2018-11-14T15:18:43.825Z,10.50
2018-11-14T15:21:12.305Z,10.40
2018-11-14T15:23:40.777Z,9.80
2018-11-14T15:26:09.308Z,10.20
2018-11-14T15:28:37.756Z,9.50
2018-11-14T15:31:06.160Z,9.60
2018-11-14T15:33:34.525Z,9.60
2018-11-14T15:36:02.881Z,8.90
2018-11-14T15:38:31.273Z,8.60
2018-11-14T15:40:59.642Z,8.70
2018-11-14T15:43:28.001Z,9.30
2018-11-14T15:45:56.480Z,9.80
2018-11-14T15:48:24.888Z,9.80
2018-11-14T15:50:53.318Z,9.00
2018-11-14T15:53:21.741Z,8.20
2018-11-14T15:55:50.098Z,8.90
2018-11-14T15:58:18.502Z,9.70
2018-11-14T16:00:46.938Z,10.10
2018-11-14T16:03:15.337Z,10.60
2018-11-14T16:05:43.873Z,10.60
2018-11-14T16:08:12.186Z,8.90
2018-11-14T16:10:40.634Z,8.40
2018-11-14T16:13:09.055Z,7.60
2018-11-14T16:15:37.874Z,7.50
2018-11-14T16:18:06.713Z,7.50
2018-11-14T16:20:35.026Z,8.60
2018-11-14T16:23:03.518Z,8.40
2018-11-14T16:25:31.795Z,8.10
2018-11-14T16:28:01.150Z,7.40
2018-11-14T16:30:35.741Z,6.90
2018-11-14T16:33:05.143Z,6.80
2018-11-14T16:35:33.427Z,8.20
2018-11-14T16:38:01.759Z,8.00
2018-11-14T16:40:31.555Z,8.40
2018-11-14T16:43:01.014Z,7.50
2018-11-14T16:45:29.398Z,7.60
2018-11-14T16:47:57.933Z,7.90
2018-11-14T16:50:26.499Z,7.40
2018-11-14T16:52:54.860Z,7.30
2018-11-14T16:55:23.965Z,7.90
2018-11-14T16:57:53.411Z,8.10
2018-11-14T17:00:24.538Z,7.30
2018-11-14T17:02:52.928Z,6.80
2018-11-14T17:05:21.973Z,6.70
2018-11-14T17:07:50.496Z,6.50
2018-11-14T17:10:20.090Z,6.80
2018-11-14T17:12:49.810Z,6.50
2018-11-14T17:15:19.674Z,6.60
2018-11-14T17:17:48.145Z,8.10
2018-11-14T17:20:17.470Z,7.90
2018-11-14T17:22:46.615Z,7.00
2018-11-14T17:25:16.315Z,6.30
2018-11-14T17:27:45.262Z,6.30
2018-11-14T17:30:18.231Z,6.30
2018-11-14T17:32:46.772Z,6.20
2018-11-14T17:35:15.991Z,6.10
2018-11-14T17:37:44.906Z,6.20
2018-11-14T17:40:17.688Z,6.40
2018-11-14T17:42:46.911Z,7.30
2018-11-14T17:45:16.543Z,7.70
2018-11-14T17:47:45.418Z,8.30
2018-11-14T17:50:19.667Z,8.80
2018-11-14T17:52:48.769Z,9.00
2018-11-14T17:55:17.946Z,8.80
2018-11-14T17:57:46.371Z,8.00
2018-11-14T18:00:16.050Z,7.70
2018-11-14T18:02:44.966Z,7.70
2018-11-14T18:05:15.530Z,7.00
2018-11-14T18:07:44.642Z,7.00
2018-11-14T18:10:14.263Z,7.50
2018-11-14T18:12:43.096Z,6.90
2018-11-14T18:15:12.191Z,7.10
2018-11-14T18:17:41.150Z,6.90
2018-11-14T18:20:13.524Z,7.60
2018-11-14T18:22:42.652Z,7.40
2018-11-14T18:25:12.115Z,7.70
2018-11-14T18:27:40.723Z,8.00
2018-11-14T18:30:14.481Z,8.70
2018-11-14T18:32:42.924Z,8.20
2018-11-14T18:35:13.130Z,7.70
2018-11-14T18:37:42.190Z,6.90
2018-11-14T18:40:13.355Z,7.40
2018-11-14T18:42:41.821Z,6.90
2018-11-14T18:45:15.346Z,6.40
2018-11-14T18:47:44.181Z,6.00
2018-11-14T18:50:13.811Z,6.00
2018-11-14T18:52:42.526Z,6.00
2018-11-14T18:55:12.601Z,5.80
2018-11-14T18:57:41.280Z,6.00
2018-11-14T19:00:15.599Z,5.80
2018-11-14T19:02:44.223Z,5.70
2018-11-14T19:05:13.117Z,5.60
2018-11-14T19:07:41.787Z,5.70
2018-11-14T19:10:11.901Z,5.70
2018-11-14T19:12:40.931Z,6.00
2018-11-14T19:15:11.721Z,5.80
2018-11-14T19:17:40.497Z,5.70
2018-11-14T19:20:11.530Z,5.80
2018-11-14T19:22:39.390Z,5.80
2018-11-14T19:25:10.060Z,6.00
2018-11-14T19:27:38.546Z,6.10
2018-11-14T19:30:09.196Z,6.10
2018-11-14T19:32:37.581Z,5.90
2018-11-14T19:35:07.609Z,5.70
2018-11-14T19:37:36.195Z,5.50
2018-11-14T19:40:05.229Z,5.30
2018-11-14T19:42:33.523Z,5.30
2018-11-14T19:45:01.951Z,5.20
2018-11-14T19:47:30.362Z,5.20
2018-11-14T19:49:58.703Z,5.20
2018-11-14T19:52:27.133Z,5.20
2018-11-14T19:54:55.559Z,5.20
2018-11-14T19:57:24.046Z,5.20
2018-11-14T19:59:52.512Z,5.50
2018-11-14T20:02:20.964Z,5.70
2018-11-14T20:04:49.650Z,5.40
2018-11-14T20:07:18.151Z,5.40
2018-11-14T20:09:46.624Z,5.30
2018-11-14T20:12:15.038Z,5.30
2018-11-14T20:14:43.408Z,5.30
2018-11-14T20:17:11.937Z,5.30
2018-11-14T20:19:40.361Z,5.40
2018-11-14T20:22:08.830Z,5.40
2018-11-14T20:24:37.338Z,5.60
2018-11-14T20:27:05.974Z,5.60
2018-11-14T20:29:34.439Z,5.50
2018-11-14T20:32:02.894Z,5.50
2018-11-14T20:34:31.342Z,5.50
2018-11-14T20:36:59.797Z,5.60
2018-11-14T20:39:28.679Z,5.60
2018-11-14T20:41:57.447Z,6.00
2018-11-14T20:44:25.897Z,5.70
2018-11-14T20:46:54.341Z,5.70
2018-11-14T20:49:22.751Z,5.70
2018-11-14T20:51:51.238Z,5.60
2018-11-14T20:54:19.644Z,5.70
2018-11-14T20:56:48.177Z,5.70
2018-11-14T20:59:16.483Z,5.60
2018-11-14T21:01:44.801Z,5.80
2018-11-14T21:04:13.276Z,5.70
2018-11-14T21:06:41.647Z,5.70
2018-11-14T21:09:10.915Z,5.70
2018-11-14T21:11:39.322Z,5.80
2018-11-14T21:14:07.858Z,5.90
2018-11-14T21:16:36.232Z,5.90
2018-11-14T21:19:04.737Z,6.10
2018-11-14T21:21:33.294Z,6.00
2018-11-14T21:24:01.763Z,6.00
2018-11-14T21:26:30.026Z,5.90
2018-11-14T21:28:58.459Z,6.00
2018-11-14T21:31:26.864Z,6.10
2018-11-14T21:33:55.313Z,5.70
2018-11-14T21:36:23.762Z,5.80
2018-11-14T21:38:52.202Z,5.70
2018-11-14T21:41:20.552Z,5.80
2018-11-14T21:43:48.986Z,5.80
2018-11-14T21:46:17.355Z,5.60
2018-11-14T21:48:45.790Z,5.60
2018-11-14T21:51:14.225Z,5.50
2018-11-14T21:53:42.587Z,6.00
2018-11-14T21:56:11.031Z,6.20
2018-11-14T21:58:39.463Z,6.00
2018-11-14T22:01:08.007Z,5.70
2018-11-14T22:03:36.349Z,5.80
2018-11-14T22:06:04.764Z,5.80
2018-11-14T22:08:33.179Z,5.80
2018-11-14T22:11:01.606Z,5.90
2018-11-14T22:13:30.044Z,5.90
2018-11-14T22:15:58.478Z,6.00
2018-11-14T22:18:26.865Z,6.00
2018-11-14T22:20:55.267Z,6.10
2018-11-14T22:23:23.660Z,6.10
2018-11-14T22:25:52.030Z,6.20
2018-11-14T22:28:20.463Z,6.20
2018-11-14T22:30:48.882Z,6.20
2018-11-14T22:33:17.271Z,6.20
2018-11-14T22:35:45.599Z,6.20
2018-11-14T22:38:14.084Z,6.40
2018-11-14T22:40:42.442Z,6.30
2018-11-14T22:43:10.830Z,6.30
2018-11-14T22:45:39.181Z,6.40
2018-11-14T22:48:07.519Z,6.30
2018-11-14T22:50:35.972Z,6.30
2018-11-14T22:53:04.624Z,6.30
2018-11-14T22:55:32.996Z,6.40
2018-11-14T22:58:02.642Z,6.30
2018-11-14T23:00:48.393Z,6.40
2018-11-14T23:03:16.810Z,6.40
2018-11-14T23:05:45.148Z,6.40
2018-11-14T23:08:13.600Z,6.30
2018-11-14T23:10:42.047Z,6.30
2018-11-14T23:13:10.375Z,6.30
2018-11-14T23:15:38.907Z,6.40
2018-11-14T23:18:07.253Z,6.30
2018-11-14T23:20:35.628Z,6.30
2018-11-14T23:23:04.123Z,6.20
2018-11-14T23:25:32.556Z,6.20
2018-11-14T23:28:00.908Z,6.30
2018-11-14T23:30:29.312Z,6.30
2018-11-14T23:32:58.136Z,6.20
2018-11-14T23:35:29.624Z,6.20
2018-11-14T23:37:59.285Z,6.10
2018-11-14T23:40:27.845Z,6.20
2018-11-14T23:42:56.246Z,6.10
2018-11-14T23:45:25.351Z,6.20
2018-11-14T23:47:53.737Z,6.10
2018-11-14T23:50:23.332Z,6.10
2018-11-14T23:52:52.628Z,6.10
2018-11-14T23:55:21.832Z,6.10
2018-11-14T23:57:50.440Z,6.00
